Arabi, Georgia
Current Conditions -  °F | °C
As of 1:55 AM on Friday 31 Oct 2014 (Local Time) from KCKF Reporting Station
Clear Clear  
Wind Chill: 48°   Ceiling: Unl
Heat Index: 48°   Visibility: 10mi
Dew Point: 46°   Wind: 0mph
Humidity: 92%   Direction: NA
Pressure: 29.96"   Gusts: NA
Location:  31.83°N, 83.74°W
Report Text: KCKF 310555Z AUTO 00000KT 10SM CLR 09/08 A2996 RMK AO2 T00900078 10150 20090 402280090
Loading
Personal Weather Stations






























Interactive Weather Map
Tropical Storm Tracking
New forecast layout! Learn more

10-Day Weather Forecast

Advertisements
Track Severe Weather on mobile